sensor_id;sensor_type;location;lat;lon;timestamp;pressure;altitude;pressure_sealevel;temperature;humidity
69957;BME280;57283;54.816;9.482;2022-12-29T00:01:45;99314.06;;;7.66;100.00
69957;BME280;57283;54.816;9.482;2022-12-29T00:04:14;99296.44;;;7.75;100.00
69957;BME280;57283;54.816;9.482;2022-12-29T00:06:44;99297.91;;;7.82;100.00
69957;BME280;57283;54.816;9.482;2022-12-29T00:09:12;99271.53;;;7.69;100.00
69957;BME280;57283;54.816;9.482;2022-12-29T00:11:40;99301.28;;;7.84;100.00
69957;BME280;57283;54.816;9.482;2022-12-29T00:14:08;99263.75;;;7.69;100.00
69957;BME280;57283;54.816;9.482;2022-12-29T00:16:51;99273.22;;;7.92;100.00
69957;BME280;57283;54.816;9.482;2022-12-29T00:19:19;99269.84;;;7.90;100.00
69957;BME280;57283;54.816;9.482;2022-12-29T00:22:08;99260.91;;;7.97;100.00
69957;BME280;57283;54.816;9.482;2022-12-29T00:24:54;99254.38;;;7.87;100.00
69957;BME280;57283;54.816;9.482;2022-12-29T00:27:39;99258.72;;;8.08;100.00
69957;BME280;57283;54.816;9.482;2022-12-29T00:30:32;99254.34;;;8.09;100.00
69957;BME280;57283;54.816;9.482;2022-12-29T00:33:20;99254.97;;;8.15;100.00
69957;BME280;57283;54.816;9.482;2022-12-29T00:36:10;99260.84;;;8.20;100.00
69957;BME280;57283;54.816;9.482;2022-12-29T00:38:45;99255.69;;;8.19;100.00
69957;BME280;57283;54.816;9.482;2022-12-29T00:41:31;99261.69;;;8.21;100.00
69957;BME280;57283;54.816;9.482;2022-12-29T00:44:16;99263.16;;;8.26;100.00
69957;BME280;57283;54.816;9.482;2022-12-29T00:46:44;99257.84;;;8.29;100.00
69957;BME280;57283;54.816;9.482;2022-12-29T00:49:13;99232.06;;;8.23;100.00
69957;BME280;57283;54.816;9.482;2022-12-29T00:52:01;99212.84;;;8.27;100.00
69957;BME280;57283;54.816;9.482;2022-12-29T00:54:33;99236.88;;;8.34;100.00
69957;BME280;57283;54.816;9.482;2022-12-29T00:57:01;99222.22;;;8.31;100.00
69957;BME280;57283;54.816;9.482;2022-12-29T00:59:30;99214.41;;;8.31;100.00
69957;BME280;57283;54.816;9.482;2022-12-29T01:01:57;99233.53;;;8.30;100.00
69957;BME280;57283;54.816;9.482;2022-12-29T01:04:26;99227.41;;;8.31;100.00
69957;BME280;57283;54.816;9.482;2022-12-29T01:06:54;99221.22;;;8.35;100.00
69957;BME280;57283;54.816;9.482;2022-12-29T01:09:22;99231.63;;;8.35;100.00
69957;BME280;57283;54.816;9.482;2022-12-29T01:12:10;99224.59;;;8.37;100.00
69957;BME280;57283;54.816;9.482;2022-12-29T01:14:38;99214.03;;;8.40;100.00
69957;BME280;57283;54.816;9.482;2022-12-29T01:17:06;99227.81;;;8.43;100.00
69957;BME280;57283;54.816;9.482;2022-12-29T01:19:34;99217.44;;;8.43;100.00
69957;BME280;57283;54.816;9.482;2022-12-29T01:22:02;99224.19;;;8.47;100.00
69957;BME280;57283;54.816;9.482;2022-12-29T01:24:30;99186.50;;;8.36;100.00
69957;BME280;57283;54.816;9.482;2022-12-29T01:26:58;99218.09;;;8.48;100.00
69957;BME280;57283;54.816;9.482;2022-12-29T01:29:27;99194.91;;;8.42;100.00
69957;BME280;57283;54.816;9.482;2022-12-29T01:31:54;99186.41;;;8.38;100.00
69957;BME280;57283;54.816;9.482;2022-12-29T01:34:22;99204.94;;;8.51;100.00
69957;BME280;57283;54.816;9.482;2022-12-29T01:36:50;99143.09;;;8.17;100.00
69957;BME280;57283;54.816;9.482;2022-12-29T01:39:18;99200.59;;;8.51;100.00
69957;BME280;57283;54.816;9.482;2022-12-29T01:41:46;99195.16;;;8.56;100.00
69957;BME280;57283;54.816;9.482;2022-12-29T01:44:50;99202.84;;;8.59;100.00
69957;BME280;57283;54.816;9.482;2022-12-29T01:47:34;99180.34;;;8.58;100.00
69957;BME280;57283;54.816;9.482;2022-12-29T01:50:06;99163.19;;;8.54;100.00
69957;BME280;57283;54.816;9.482;2022-12-29T01:52:40;99167.56;;;8.53;100.00
69957;BME280;57283;54.816;9.482;2022-12-29T01:55:11;99180.63;;;8.52;100.00
69957;BME280;57283;54.816;9.482;2022-12-29T01:57:44;99169.94;;;8.58;100.00
69957;BME280;57283;54.816;9.482;2022-12-29T02:00:15;99165.63;;;8.57;100.00
69957;BME280;57283;54.816;9.482;2022-12-29T02:02:46;99162.06;;;8.59;100.00
69957;BME280;57283;54.816;9.482;2022-12-29T02:05:24;99159.38;;;8.61;100.00
69957;BME280;57283;54.816;9.482;2022-12-29T02:07:53;99151.66;;;8.59;100.00
69957;BME280;57283;54.816;9.482;2022-12-29T02:10:23;99161.22;;;8.59;100.00
69957;BME280;57283;54.816;9.482;2022-12-29T02:12:52;99155.09;;;8.60;100.00
69957;BME280;57283;54.816;9.482;2022-12-29T02:15:27;99142.50;;;8.51;100.00
69957;BME280;57283;54.816;9.482;2022-12-29T02:18:10;99150.81;;;8.59;100.00
69957;BME280;57283;54.816;9.482;2022-12-29T02:21:15;99148.13;;;8.60;100.00
69957;BME280;57283;54.816;9.482;2022-12-29T02:23:59;99127.81;;;8.50;100.00
69957;BME280;57283;54.816;9.482;2022-12-29T02:26:47;99152.50;;;8.60;100.00
69957;BME280;57283;54.816;9.482;2022-12-29T02:29:36;99141.44;;;8.55;100.00
69957;BME280;57283;54.816;9.482;2022-12-29T02:32:12;99137.16;;;8.54;100.00
69957;BME280;57283;54.816;9.482;2022-12-29T02:34:48;99137.06;;;8.55;100.00
69957;BME280;57283;54.816;9.482;2022-12-29T02:37:22;99139.00;;;8.52;100.00
69957;BME280;57283;54.816;9.482;2022-12-29T02:39:59;99138.75;;;8.56;100.00
69957;BME280;57283;54.816;9.482;2022-12-29T02:42:35;99132.72;;;8.56;100.00
69957;BME280;57283;54.816;9.482;2022-12-29T02:45:06;99025.91;;;8.01;100.00
69957;BME280;57283;54.816;9.482;2022-12-29T02:47:41;99125.56;;;8.61;100.00
69957;BME280;57283;54.816;9.482;2022-12-29T02:50:19;99077.78;;;8.43;100.00
69957;BME280;57283;54.816;9.482;2022-12-29T02:52:50;99119.97;;;8.70;100.00
69957;BME280;57283;54.816;9.482;2022-12-29T02:55:20;99113.84;;;8.71;100.00
69957;BME280;57283;54.816;9.482;2022-12-29T02:57:47;99112.91;;;8.72;100.00
69957;BME280;57283;54.816;9.482;2022-12-29T03:00:16;99115.22;;;8.78;100.00
69957;BME280;57283;54.816;9.482;2022-12-29T03:03:15;99097.09;;;8.77;100.00
69957;BME280;57283;54.816;9.482;2022-12-29T03:06:09;99115.22;;;8.78;100.00
69957;BME280;57283;54.816;9.482;2022-12-29T03:08:48;99118.75;;;8.77;100.00
69957;BME280;57283;54.816;9.482;2022-12-29T03:11:17;99105.59;;;8.80;100.00
69957;BME280;57283;54.816;9.482;2022-12-29T03:14:08;99100.53;;;8.77;100.00
69957;BME280;57283;54.816;9.482;2022-12-29T03:17:02;99108.19;;;8.80;100.00
69957;BME280;57283;54.816;9.482;2022-12-29T03:19:36;99105.34;;;8.86;100.00
69957;BME280;57283;54.816;9.482;2022-12-29T03:22:06;99090.63;;;8.85;100.00
69957;BME280;57283;54.816;9.482;2022-12-29T03:24:57;99114.66;;;8.90;100.00
69957;BME280;57283;54.816;9.482;2022-12-29T03:27:29;99104.13;;;8.93;100.00
69957;BME280;57283;54.816;9.482;2022-12-29T03:30:00;99106.66;;;8.95;100.00
69957;BME280;57283;54.816;9.482;2022-12-29T03:32:33;99082.44;;;8.93;100.00
69957;BME280;57283;54.816;9.482;2022-12-29T03:35:05;99086.81;;;8.92;100.00
69957;BME280;57283;54.816;9.482;2022-12-29T03:37:37;99080.34;;;8.82;100.00
69957;BME280;57283;54.816;9.482;2022-12-29T03:40:07;99085.13;;;8.91;100.00
69957;BME280;57283;54.816;9.482;2022-12-29T03:42:36;99089.34;;;8.94;100.00
69957;BME280;57283;54.816;9.482;2022-12-29T03:45:07;99084.84;;;8.97;100.00
69957;BME280;57283;54.816;9.482;2022-12-29T03:47:35;99071.03;;;8.95;100.00
69957;BME280;57283;54.816;9.482;2022-12-29T03:50:05;99083.16;;;8.96;100.00
69957;BME280;57283;54.816;9.482;2022-12-29T03:52:35;99076.25;;;8.95;100.00
69957;BME280;57283;54.816;9.482;2022-12-29T03:55:03;99053.88;;;8.91;100.00
69957;BME280;57283;54.816;9.482;2022-12-29T03:57:31;99066.69;;;8.96;100.00
69957;BME280;57283;54.816;9.482;2022-12-29T03:59:59;99071.03;;;8.95;100.00
69957;BME280;57283;54.816;9.482;2022-12-29T04:02:27;99070.19;;;8.95;100.00
69957;BME280;57283;54.816;9.482;2022-12-29T04:04:55;99070.13;;;8.96;100.00
69957;BME280;57283;54.816;9.482;2022-12-29T04:07:24;99072.66;;;8.98;100.00
69957;BME280;57283;54.816;9.482;2022-12-29T04:09:52;99062.94;;;9.01;100.00
69957;BME280;57283;54.816;9.482;2022-12-29T04:12:20;99056.84;;;9.02;100.00
69957;BME280;57283;54.816;9.482;2022-12-29T04:14:47;99062.03;;;9.02;100.00
69957;BME280;57283;54.816;9.482;2022-12-29T04:17:15;99037.69;;;9.03;100.00
69957;BME280;57283;54.816;9.482;2022-12-29T04:19:43;99048.94;;;9.04;100.00
69957;BME280;57283;54.816;9.482;2022-12-29T04:22:11;98933.25;;;8.37;100.00
69957;BME280;57283;54.816;9.482;2022-12-29T04:24:39;99037.53;;;9.06;100.00
69957;BME280;57283;54.816;9.482;2022-12-29T04:27:07;99030.63;;;9.05;100.00
69957;BME280;57283;54.816;9.482;2022-12-29T04:29:35;99032.47;;;9.03;100.00
69957;BME280;57283;54.816;9.482;2022-12-29T04:32:04;99026.03;;;9.10;100.00
69957;BME280;57283;54.816;9.482;2022-12-29T04:34:32;99027.81;;;9.10;100.00
69957;BME280;57283;54.816;9.482;2022-12-29T04:37:00;99031.97;;;9.14;100.00
69957;BME280;57283;54.816;9.482;2022-12-29T04:39:28;99029.22;;;9.17;100.00
69957;BME280;57283;54.816;9.482;2022-12-29T04:41:57;99021.31;;;9.19;100.00
69957;BME280;57283;54.816;9.482;2022-12-29T04:44:25;99036.63;;;9.25;100.00
69957;BME280;57283;54.816;9.482;2022-12-29T04:46:53;99022.75;;;9.24;100.00
69957;BME280;57283;54.816;9.482;2022-12-29T04:49:21;98965.06;;;8.97;100.00
69957;BME280;57283;54.816;9.482;2022-12-29T04:51:49;99021.47;;;9.33;100.00
69957;BME280;57283;54.816;9.482;2022-12-29T04:54:17;99016.19;;;9.34;100.00
69957;BME280;57283;54.816;9.482;2022-12-29T04:56:45;98999.81;;;9.32;100.00
69957;BME280;57283;54.816;9.482;2022-12-29T04:59:14;99004.09;;;9.33;100.00
69957;BME280;57283;54.816;9.482;2022-12-29T05:01:42;98924.16;;;8.82;100.00
69957;BME280;57283;54.816;9.482;2022-12-29T05:04:10;98992.19;;;9.28;100.00
69957;BME280;57283;54.816;9.482;2022-12-29T05:06:38;98974.81;;;9.28;100.00
69957;BME280;57283;54.816;9.482;2022-12-29T05:09:06;98895.81;;;8.76;100.00
69957;BME280;57283;54.816;9.482;2022-12-29T05:11:34;98988.22;;;9.21;100.00
69957;BME280;57283;54.816;9.482;2022-12-29T05:14:01;98984.00;;;9.18;100.00
69957;BME280;57283;54.816;9.482;2022-12-29T05:16:31;98999.38;;;9.23;100.00
69957;BME280;57283;54.816;9.482;2022-12-29T05:18:59;98990.97;;;9.18;100.00
69957;BME280;57283;54.816;9.482;2022-12-29T05:21:26;99018.72;;;9.19;100.00
69957;BME280;57283;54.816;9.482;2022-12-29T05:23:54;99007.66;;;9.14;100.00
69957;BME280;57283;54.816;9.482;2022-12-29T05:26:22;99017.47;;;9.08;100.00
69957;BME280;57283;54.816;9.482;2022-12-29T05:28:50;99011.34;;;9.09;100.00
69957;BME280;57283;54.816;9.482;2022-12-29T05:31:18;99044.41;;;9.07;100.00
69957;BME280;57283;54.816;9.482;2022-12-29T05:33:47;99047.19;;;9.04;100.00
69957;BME280;57283;54.816;9.482;2022-12-29T05:36:15;99046.69;;;8.96;100.00
69957;BME280;57283;54.816;9.482;2022-12-29T05:38:44;99040.25;;;8.86;100.00
69957;BME280;57283;54.816;9.482;2022-12-29T05:41:12;99033.00;;;8.74;100.00
69957;BME280;57283;54.816;9.482;2022-12-29T05:43:39;99011.69;;;8.66;100.00
69957;BME280;57283;54.816;9.482;2022-12-29T05:46:07;98964.19;;;8.23;100.00
69957;BME280;57283;54.816;9.482;2022-12-29T05:48:35;99029.78;;;8.50;100.00
69957;BME280;57283;54.816;9.482;2022-12-29T05:51:05;99020.69;;;8.40;100.00
69957;BME280;57283;54.816;9.482;2022-12-29T05:53:33;99006.91;;;8.38;100.00
69957;BME280;57283;54.816;9.482;2022-12-29T05:56:01;99010.09;;;8.24;100.00
69957;BME280;57283;54.816;9.482;2022-12-29T05:58:29;99006.59;;;8.25;100.00
69957;BME280;57283;54.816;9.482;2022-12-29T06:00:56;98995.41;;;8.23;100.00
69957;BME280;57283;54.816;9.482;2022-12-29T06:03:24;99005.31;;;8.15;100.00
69957;BME280;57283;54.816;9.482;2022-12-29T06:05:53;99008.56;;;8.20;100.00
69957;BME280;57283;54.816;9.482;2022-12-29T06:08:22;99013.78;;;8.20;100.00
69957;BME280;57283;54.816;9.482;2022-12-29T06:10:50;99014.94;;;8.13;100.00
69957;BME280;57283;54.816;9.482;2022-12-29T06:13:18;98916.69;;;7.43;100.00
69957;BME280;57283;54.816;9.482;2022-12-29T06:15:47;99001.06;;;7.94;100.00
69957;BME280;57283;54.816;9.482;2022-12-29T06:18:15;99018.22;;;7.98;100.00
69957;BME280;57283;54.816;9.482;2022-12-29T06:20:46;98970.44;;;7.82;100.00
69957;BME280;57283;54.816;9.482;2022-12-29T06:23:14;99019.91;;;7.99;100.00
69957;BME280;57283;54.816;9.482;2022-12-29T06:25:44;99026.75;;;8.01;100.00
69957;BME280;57283;54.816;9.482;2022-12-29T06:28:12;98992.63;;;7.89;100.00
69957;BME280;57283;54.816;9.482;2022-12-29T06:30:40;99012.78;;;8.04;100.00
69957;BME280;57283;54.816;9.482;2022-12-29T06:33:10;99015.44;;;8.02;100.00
69957;BME280;57283;54.816;9.482;2022-12-29T06:35:38;99000.50;;;8.06;100.00
69957;BME280;57283;54.816;9.482;2022-12-29T06:38:06;99030.69;;;8.10;100.00
69957;BME280;57283;54.816;9.482;2022-12-29T06:40:33;99031.16;;;7.99;100.00
69957;BME280;57283;54.816;9.482;2022-12-29T06:43:03;99029.97;;;8.06;100.00
69957;BME280;57283;54.816;9.482;2022-12-29T06:45:31;99029.91;;;8.08;100.00
69957;BME280;57283;54.816;9.482;2022-12-29T06:47:59;99017.81;;;8.07;100.00
69957;BME280;57283;54.816;9.482;2022-12-29T06:50:27;99018.66;;;8.07;100.00
69957;BME280;57283;54.816;9.482;2022-12-29T06:52:55;98999.25;;;7.96;100.00
69957;BME280;57283;54.816;9.482;2022-12-29T06:55:22;99022.88;;;8.10;100.00
69957;BME280;57283;54.816;9.482;2022-12-29T06:57:54;99031.34;;;8.15;100.00
69957;BME280;57283;54.816;9.482;2022-12-29T07:00:23;99038.09;;;8.19;100.00
69957;BME280;57283;54.816;9.482;2022-12-29T07:02:51;99037.19;;;8.20;100.00
69957;BME280;57283;54.816;9.482;2022-12-29T07:05:19;99029.22;;;8.23;100.00
69957;BME280;57283;54.816;9.482;2022-12-29T07:07:47;99023.41;;;8.18;100.00
69957;BME280;57283;54.816;9.482;2022-12-29T07:10:15;99012.34;;;8.13;100.00
69957;BME280;57283;54.816;9.482;2022-12-29T07:12:43;99035.97;;;8.27;100.00
69957;BME280;57283;54.816;9.482;2022-12-29T07:15:11;99032.47;;;8.28;100.00
69957;BME280;57283;54.816;9.482;2022-12-29T07:17:40;99042.63;;;8.34;100.00
69957;BME280;57283;54.816;9.482;2022-12-29T07:20:09;99045.84;;;8.39;100.00
69957;BME280;57283;54.816;9.482;2022-12-29T07:22:37;99031.88;;;8.42;100.00
69957;BME280;57283;54.816;9.482;2022-12-29T07:25:05;99039.53;;;8.45;100.00
69957;BME280;57283;54.816;9.482;2022-12-29T07:27:33;99028.41;;;8.42;100.00
69957;BME280;57283;54.816;9.482;2022-12-29T07:30:01;99038.56;;;8.48;100.00
69957;BME280;57283;54.816;9.482;2022-12-29T07:32:32;99048.13;;;8.47;100.00
69957;BME280;57283;54.816;9.482;2022-12-29T07:35:01;99045.47;;;8.49;100.00
69957;BME280;57283;54.816;9.482;2022-12-29T07:37:30;99052.34;;;8.50;100.00
69957;BME280;57283;54.816;9.482;2022-12-29T07:39:58;99051.56;;;8.48;100.00
69957;BME280;57283;54.816;9.482;2022-12-29T07:42:26;99061.78;;;8.52;100.00
69957;BME280;57283;54.816;9.482;2022-12-29T07:44:53;99062.75;;;8.50;100.00
69957;BME280;57283;54.816;9.482;2022-12-29T07:47:21;99050.78;;;8.46;100.00
69957;BME280;57283;54.816;9.482;2022-12-29T07:49:50;99075.13;;;8.45;100.00
69957;BME280;57283;54.816;9.482;2022-12-29T07:52:19;99056.97;;;8.43;100.00
69957;BME280;57283;54.816;9.482;2022-12-29T07:54:47;99063.31;;;8.37;100.00
69957;BME280;57283;54.816;9.482;2022-12-29T07:57:14;99059.78;;;8.38;100.00
69957;BME280;57283;54.816;9.482;2022-12-29T07:59:42;99020.16;;;8.13;100.00
69957;BME280;57283;54.816;9.482;2022-12-29T08:02:11;99057.34;;;8.35;100.00
69957;BME280;57283;54.816;9.482;2022-12-29T08:04:39;99057.50;;;8.31;100.00
69957;BME280;57283;54.816;9.482;2022-12-29T08:07:06;99038.09;;;8.19;100.00
69957;BME280;57283;54.816;9.482;2022-12-29T08:09:36;99055.88;;;8.28;100.00
69957;BME280;57283;54.816;9.482;2022-12-29T08:12:04;99048.50;;;8.19;100.00
69957;BME280;57283;54.816;9.482;2022-12-29T08:14:32;99063.81;;;8.25;100.00
69957;BME280;57283;54.816;9.482;2022-12-29T08:16:59;99065.63;;;8.23;100.00
69957;BME280;57283;54.816;9.482;2022-12-29T08:19:27;99070.50;;;8.31;100.00
69957;BME280;57283;54.816;9.482;2022-12-29T08:21:55;99065.63;;;8.23;100.00
69957;BME280;57283;54.816;9.482;2022-12-29T08:24:23;99066.41;;;8.25;100.00
69957;BME280;57283;54.816;9.482;2022-12-29T08:26:53;99074.06;;;8.28;100.00
69957;BME280;57283;54.816;9.482;2022-12-29T08:29:21;99067.31;;;8.24;100.00
69957;BME280;57283;54.816;9.482;2022-12-29T08:31:49;99069.00;;;8.25;100.00
69957;BME280;57283;54.816;9.482;2022-12-29T08:34:17;99076.75;;;8.27;100.00
69957;BME280;57283;54.816;9.482;2022-12-29T08:36:45;99065.28;;;8.32;100.00
69957;BME280;57283;54.816;9.482;2022-12-29T08:39:12;99074.81;;;8.32;100.00
69957;BME280;57283;54.816;9.482;2022-12-29T08:41:40;99072.94;;;8.35;100.00
69957;BME280;57283;54.816;9.482;2022-12-29T08:44:09;99076.94;;;8.43;100.00
69957;BME280;57283;54.816;9.482;2022-12-29T08:46:38;99077.78;;;8.43;100.00
69957;BME280;57283;54.816;9.482;2022-12-29T08:49:05;99080.97;;;8.50;100.00
69957;BME280;57283;54.816;9.482;2022-12-29T08:51:33;99085.53;;;8.45;100.00
69957;BME280;57283;54.816;9.482;2022-12-29T08:54:01;99078.50;;;8.47;100.00
69957;BME280;57283;54.816;9.482;2022-12-29T08:56:29;99076.63;;;8.50;100.00
69957;BME280;57283;54.816;9.482;2022-12-29T08:58:57;99052.19;;;8.34;100.00
69957;BME280;57283;54.816;9.482;2022-12-29T09:01:27;99079.09;;;8.53;100.00
69957;BME280;57283;54.816;9.482;2022-12-29T09:03:55;99087.50;;;8.58;100.00
69957;BME280;57283;54.816;9.482;2022-12-29T09:06:41;99072.72;;;8.59;100.00
69957;BME280;57283;54.816;9.482;2022-12-29T09:09:09;99079.28;;;8.67;100.00
69957;BME280;57283;54.816;9.482;2022-12-29T09:11:38;99083.84;;;8.62;100.00
69957;BME280;57283;54.816;9.482;2022-12-29T09:14:06;99087.94;;;8.68;100.00
69957;BME280;57283;54.816;9.482;2022-12-29T09:16:35;99090.16;;;8.57;100.00
69957;BME280;57283;54.816;9.482;2022-12-29T09:19:03;99080.06;;;8.51;100.00
69957;BME280;57283;54.816;9.482;2022-12-29T09:21:31;99080.66;;;8.56;100.00
69957;BME280;57283;54.816;9.482;2022-12-29T09:23:59;99091.78;;;8.59;100.00
69957;BME280;57283;54.816;9.482;2022-12-29T09:26:27;99093.94;;;8.70;100.00
69957;BME280;57283;54.816;9.482;2022-12-29T09:28:55;99090.63;;;8.66;100.00
69957;BME280;57283;54.816;9.482;2022-12-29T09:31:23;99096.53;;;8.70;100.00
69957;BME280;57283;54.816;9.482;2022-12-29T09:33:53;99089.91;;;8.82;100.00
69957;BME280;57283;54.816;9.482;2022-12-29T09:36:20;99089.19;;;9.16;100.00
69957;BME280;57283;54.816;9.482;2022-12-29T09:38:49;99074.84;;;8.88;100.00
69957;BME280;57283;54.816;9.482;2022-12-29T09:41:21;99090.19;;;8.94;100.00
69957;BME280;57283;54.816;9.482;2022-12-29T09:44:00;99067.19;;;8.66;100.00
69957;BME280;57283;54.816;9.482;2022-12-29T09:46:33;99049.25;;;8.79;100.00
69957;BME280;57283;54.816;9.482;2022-12-29T09:49:19;99067.72;;;8.92;100.00
69957;BME280;57283;54.816;9.482;2022-12-29T09:51:52;99063.94;;;8.80;100.00
69957;BME280;57283;54.816;9.482;2022-12-29T09:54:34;99080.34;;;9.01;100.00
69957;BME280;57283;54.816;9.482;2022-12-29T09:57:05;98896.53;;;7.68;100.00
69957;BME280;57283;54.816;9.482;2022-12-29T09:59:40;99074.94;;;8.87;100.00
69957;BME280;57283;54.816;9.482;2022-12-29T10:02:20;99062.78;;;8.68;100.00
69957;BME280;57283;54.816;9.482;2022-12-29T10:04:53;99103.06;;;8.97;100.00
69957;BME280;57283;54.816;9.482;2022-12-29T10:07:27;99021.41;;;8.44;100.00
69957;BME280;57283;54.816;9.482;2022-12-29T10:10:09;99096.81;;;9.01;100.00
69957;BME280;57283;54.816;9.482;2022-12-29T10:12:56;99093.44;;;8.99;100.00
69957;BME280;57283;54.816;9.482;2022-12-29T10:15:39;99092.00;;;8.92;100.00
69957;BME280;57283;54.816;9.482;2022-12-29T10:18:20;99093.97;;;9.06;100.00
69957;BME280;57283;54.816;9.482;2022-12-29T10:20:55;99080.34;;;9.01;100.00
69957;BME280;57283;54.816;9.482;2022-12-29T10:23:27;99068.25;;;8.81;100.00
69957;BME280;57283;54.816;9.482;2022-12-29T10:25:57;99108.06;;;9.02;100.00
69957;BME280;57283;54.816;9.482;2022-12-29T10:28:34;99107.09;;;9.04;100.00
69957;BME280;57283;54.816;9.482;2022-12-29T10:31:05;99089.06;;;8.81;100.00
69957;BME280;57283;54.816;9.482;2022-12-29T10:33:37;99102.56;;;8.89;100.00
69957;BME280;57283;54.816;9.482;2022-12-29T10:36:15;99109.25;;;8.76;100.00
69957;BME280;57283;54.816;9.482;2022-12-29T10:38:48;99099.28;;;8.67;100.00
69957;BME280;57283;54.816;9.482;2022-12-29T10:41:23;99063.69;;;8.28;100.00
69957;BME280;57283;54.816;9.482;2022-12-29T10:43:54;99091.25;;;8.53;100.00
69957;BME280;57283;54.816;9.482;2022-12-29T10:46:26;99091.25;;;8.53;100.00
69957;BME280;57283;54.816;9.482;2022-12-29T10:48:55;99104.94;;;8.56;100.00
69957;BME280;57283;54.816;9.482;2022-12-29T10:51:28;99059.56;;;8.23;100.00
69957;BME280;57283;54.816;9.482;2022-12-29T10:53:59;99078.28;;;8.32;100.00
69957;BME280;57283;54.816;9.482;2022-12-29T10:56:33;99088.63;;;8.34;100.00
69957;BME280;57283;54.816;9.482;2022-12-29T10:59:06;99095.56;;;8.33;100.00
69957;BME280;57283;54.816;9.482;2022-12-29T11:01:46;99105.56;;;8.43;100.00
69957;BME280;57283;54.816;9.482;2022-12-29T11:04:28;99072.38;;;8.27;100.00
69957;BME280;57283;54.816;9.482;2022-12-29T11:07:03;99104.38;;;8.50;100.00
69957;BME280;57283;54.816;9.482;2022-12-29T11:09:39;99124.53;;;8.45;100.00
69957;BME280;57283;54.816;9.482;2022-12-29T11:12:21;99093.44;;;8.21;100.00
69957;BME280;57283;54.816;9.482;2022-12-29T11:15:02;99101.91;;;8.26;100.00
69957;BME280;57283;54.816;9.482;2022-12-29T11:17:44;99101.28;;;8.01;100.00
69957;BME280;57283;54.816;9.482;2022-12-29T11:20:32;99121.88;;;8.05;100.00
69957;BME280;57283;54.816;9.482;2022-12-29T11:23:04;99108.31;;;7.99;100.00
69957;BME280;57283;54.816;9.482;2022-12-29T11:25:32;99103.88;;;8.01;100.00
69957;BME280;57283;54.816;9.482;2022-12-29T11:28:02;99111.41;;;8.07;100.00
69957;BME280;57283;54.816;9.482;2022-12-29T11:30:31;99093.75;;;7.95;100.00
69957;BME280;57283;54.816;9.482;2022-12-29T11:33:03;99096.09;;;8.01;100.00
69957;BME280;57283;54.816;9.482;2022-12-29T11:35:35;99047.72;;;7.56;100.00
69957;BME280;57283;54.816;9.482;2022-12-29T11:38:18;99105.78;;;7.97;100.00
69957;BME280;57283;54.816;9.482;2022-12-29T11:40:47;99091.25;;;7.92;100.00
69957;BME280;57283;54.816;9.482;2022-12-29T11:43:23;99114.59;;;7.93;100.00
69957;BME280;57283;54.816;9.482;2022-12-29T11:45:53;99115.56;;;7.91;100.00
69957;BME280;57283;54.816;9.482;2022-12-29T11:48:23;99108.75;;;7.88;100.00
69957;BME280;57283;54.816;9.482;2022-12-29T11:50:55;99112.06;;;7.92;100.00
69957;BME280;57283;54.816;9.482;2022-12-29T11:53:31;99103.09;;;7.99;100.00
69957;BME280;57283;54.816;9.482;2022-12-29T11:56:04;99098.88;;;7.96;100.00
69957;BME280;57283;54.816;9.482;2022-12-29T11:58:34;99085.81;;;7.98;100.00
69957;BME280;57283;54.816;9.482;2022-12-29T12:01:05;99092.84;;;7.96;100.00
69957;BME280;57283;54.816;9.482;2022-12-29T12:03:37;99116.88;;;8.01;100.00
69957;BME280;57283;54.816;9.482;2022-12-29T12:06:10;99097.78;;;8.02;100.00
69957;BME280;57283;54.816;9.482;2022-12-29T12:08:50;99091.84;;;7.98;100.00
69957;BME280;57283;54.816;9.482;2022-12-29T12:11:22;99101.16;;;8.04;100.00
69957;BME280;57283;54.816;9.482;2022-12-29T12:14:00;99074.56;;;7.97;100.00
69957;BME280;57283;54.816;9.482;2022-12-29T12:16:35;99101.84;;;8.07;100.00
69957;BME280;57283;54.816;9.482;2022-12-29T12:19:14;99089.69;;;8.08;100.00
69957;BME280;57283;54.816;9.482;2022-12-29T12:21:51;99094.97;;;8.06;100.00
69957;BME280;57283;54.816;9.482;2022-12-29T12:24:41;99090.59;;;8.07;100.00
69957;BME280;57283;54.816;9.482;2022-12-29T12:27:13;99092.16;;;8.11;100.00
69957;BME280;57283;54.816;9.482;2022-12-29T12:29:50;99124.41;;;8.07;100.00
69957;BME280;57283;54.816;9.482;2022-12-29T12:32:21;99103.47;;;8.10;100.00
69957;BME280;57283;54.816;9.482;2022-12-29T12:34:50;99091.56;;;8.04;100.00
69957;BME280;57283;54.816;9.482;2022-12-29T12:40:35;99105.38;;;8.06;100.00
69957;BME280;57283;54.816;9.482;2022-12-29T12:43:39;99125.59;;;8.00;100.00
69957;BME280;57283;54.816;9.482;2022-12-29T12:46:27;99121.13;;;8.03;100.00
69957;BME280;57283;54.816;9.482;2022-12-29T12:49:26;99122.94;;;8.01;100.00
69957;BME280;57283;54.816;9.482;2022-12-29T12:52:07;99118.69;;;7.99;100.00
69957;BME280;57283;54.816;9.482;2022-12-29T12:54:49;99131.69;;;7.99;100.00
69957;BME280;57283;54.816;9.482;2022-12-29T12:57:36;99093.00;;;7.71;100.00
69957;BME280;57283;54.816;9.482;2022-12-29T13:00:11;99111.50;;;7.85;100.00
69957;BME280;57283;54.816;9.482;2022-12-29T13:02:49;99126.47;;;7.79;100.00
69957;BME280;57283;54.816;9.482;2022-12-29T13:05:31;99142.06;;;7.79;100.00
69957;BME280;57283;54.816;9.482;2022-12-29T13:08:25;99152.53;;;7.77;100.00
69957;BME280;57283;54.816;9.482;2022-12-29T13:11:04;99153.31;;;7.79;100.00
69957;BME280;57283;54.816;9.482;2022-12-29T13:13:54;99171.69;;;7.75;100.00
69957;BME280;57283;54.816;9.482;2022-12-29T13:16:31;99163.09;;;7.72;100.00
69957;BME280;57283;54.816;9.482;2022-12-29T13:19:06;99171.94;;;7.68;100.00
69957;BME280;57283;54.816;9.482;2022-12-29T13:21:48;99206.38;;;7.74;100.00
69957;BME280;57283;54.816;9.482;2022-12-29T13:24:38;99188.25;;;7.72;100.00
69957;BME280;57283;54.816;9.482;2022-12-29T13:27:13;99196.25;;;7.67;100.00
69957;BME280;57283;54.816;9.482;2022-12-29T13:29:48;99187.66;;;7.65;100.00
69957;BME280;57283;54.816;9.482;2022-12-29T13:32:23;99198.53;;;7.75;100.00